sensor_id;sensor_type;location;lat;lon;timestamp;P1;durP1;ratioP1;P2;durP2;ratioP2
65238;SDS011;51827;51.186;6.926;2024-01-15T00:00:42;3.10;;;2.33;;
65238;SDS011;51827;51.186;6.926;2024-01-15T00:01:45;5.13;;;2.75;;
65238;SDS011;51827;51.186;6.926;2024-01-15T00:02:46;2.95;;;2.30;;
65238;SDS011;51827;51.186;6.926;2024-01-15T00:03:47;3.20;;;2.30;;
65238;SDS011;51827;51.186;6.926;2024-01-15T00:04:47;3.40;;;2.20;;
65238;SDS011;51827;51.186;6.926;2024-01-15T00:05:47;3.87;;;2.70;;
65238;SDS011;51827;51.186;6.926;2024-01-15T00:06:48;4.27;;;2.37;;
65238;SDS011;51827;51.186;6.926;2024-01-15T00:07:49;3.85;;;2.47;;
65238;SDS011;51827;51.186;6.926;2024-01-15T00:08:49;3.33;;;2.27;;
65238;SDS011;51827;51.186;6.926;2024-01-15T00:09:49;3.60;;;2.47;;
65238;SDS011;51827;51.186;6.926;2024-01-15T00:10:50;3.37;;;2.23;;
65238;SDS011;51827;51.186;6.926;2024-01-15T00:11:53;4.50;;;2.47;;
65238;SDS011;51827;51.186;6.926;2024-01-15T00:12:53;3.55;;;2.15;;
65238;SDS011;51827;51.186;6.926;2024-01-15T00:13:53;3.40;;;2.30;;
65238;SDS011;51827;51.186;6.926;2024-01-15T00:14:54;3.50;;;2.30;;
65238;SDS011;51827;51.186;6.926;2024-01-15T00:15:54;3.43;;;2.50;;
65238;SDS011;51827;51.186;6.926;2024-01-15T00:16:54;2.93;;;2.00;;
65238;SDS011;51827;51.186;6.926;2024-01-15T00:17:54;3.93;;;2.60;;
65238;SDS011;51827;51.186;6.926;2024-01-15T00:18:55;3.85;;;2.70;;
65238;SDS011;51827;51.186;6.926;2024-01-15T00:19:55;3.07;;;2.10;;
65238;SDS011;51827;51.186;6.926;2024-01-15T00:20:56;2.80;;;2.10;;
65238;SDS011;51827;51.186;6.926;2024-01-15T00:21:56;4.90;;;2.47;;
65238;SDS011;51827;51.186;6.926;2024-01-15T00:22:56;3.43;;;2.30;;
65238;SDS011;51827;51.186;6.926;2024-01-15T00:23:56;2.97;;;2.07;;
65238;SDS011;51827;51.186;6.926;2024-01-15T00:24:57;3.43;;;2.60;;
65238;SDS011;51827;51.186;6.926;2024-01-15T00:25:57;3.10;;;2.20;;
65238;SDS011;51827;51.186;6.926;2024-01-15T00:26:57;3.23;;;2.27;;
65238;SDS011;51827;51.186;6.926;2024-01-15T00:27:57;4.80;;;2.20;;
65238;SDS011;51827;51.186;6.926;2024-01-15T00:28:58;3.73;;;2.47;;
65238;SDS011;51827;51.186;6.926;2024-01-15T00:29:58;3.40;;;2.20;;
65238;SDS011;51827;51.186;6.926;2024-01-15T00:30:58;3.33;;;2.20;;
65238;SDS011;51827;51.186;6.926;2024-01-15T00:31:58;3.73;;;2.43;;
65238;SDS011;51827;51.186;6.926;2024-01-15T00:32:59;3.60;;;2.50;;
65238;SDS011;51827;51.186;6.926;2024-01-15T00:33:59;3.57;;;2.40;;
65238;SDS011;51827;51.186;6.926;2024-01-15T00:34:59;3.63;;;2.40;;
65238;SDS011;51827;51.186;6.926;2024-01-15T00:35:59;3.03;;;2.20;;
65238;SDS011;51827;51.186;6.926;2024-01-15T00:37:02;3.05;;;2.40;;
65238;SDS011;51827;51.186;6.926;2024-01-15T00:38:18;3.10;;;2.33;;
65238;SDS011;51827;51.186;6.926;2024-01-15T00:39:18;3.53;;;2.47;;
65238;SDS011;51827;51.186;6.926;2024-01-15T00:40:18;3.33;;;2.30;;
65238;SDS011;51827;51.186;6.926;2024-01-15T00:41:18;3.20;;;2.17;;
65238;SDS011;51827;51.186;6.926;2024-01-15T00:42:19;3.50;;;2.50;;
65238;SDS011;51827;51.186;6.926;2024-01-15T00:43:19;3.80;;;2.23;;
65238;SDS011;51827;51.186;6.926;2024-01-15T00:44:20;3.00;;;2.30;;
65238;SDS011;51827;51.186;6.926;2024-01-15T00:45:22;4.70;;;2.40;;
65238;SDS011;51827;51.186;6.926;2024-01-15T00:46:23;3.73;;;2.30;;
65238;SDS011;51827;51.186;6.926;2024-01-15T00:47:23;4.67;;;2.60;;
65238;SDS011;51827;51.186;6.926;2024-01-15T00:48:23;3.63;;;2.40;;
65238;SDS011;51827;51.186;6.926;2024-01-15T00:49:23;3.03;;;2.20;;
65238;SDS011;51827;51.186;6.926;2024-01-15T00:50:24;3.90;;;2.90;;
65238;SDS011;51827;51.186;6.926;2024-01-15T00:51:24;3.80;;;2.50;;
65238;SDS011;51827;51.186;6.926;2024-01-15T00:52:24;3.83;;;2.30;;
65238;SDS011;51827;51.186;6.926;2024-01-15T00:53:25;3.47;;;2.37;;
65238;SDS011;51827;51.186;6.926;2024-01-15T00:54:26;3.63;;;2.70;;
65238;SDS011;51827;51.186;6.926;2024-01-15T00:55:27;3.65;;;2.50;;
65238;SDS011;51827;51.186;6.926;2024-01-15T00:56:28;3.85;;;2.55;;
65238;SDS011;51827;51.186;6.926;2024-01-15T00:57:28;4.47;;;2.70;;
65238;SDS011;51827;51.186;6.926;2024-01-15T00:58:29;3.87;;;2.63;;
65238;SDS011;51827;51.186;6.926;2024-01-15T00:59:29;3.77;;;2.27;;
65238;SDS011;51827;51.186;6.926;2024-01-15T01:00:29;3.43;;;2.40;;
65238;SDS011;51827;51.186;6.926;2024-01-15T01:01:29;3.93;;;2.27;;
65238;SDS011;51827;51.186;6.926;2024-01-15T01:02:30;3.03;;;2.13;;
65238;SDS011;51827;51.186;6.926;2024-01-15T01:03:30;4.07;;;2.60;;
65238;SDS011;51827;51.186;6.926;2024-01-15T01:04:30;3.97;;;2.43;;
65238;SDS011;51827;51.186;6.926;2024-01-15T01:05:30;3.60;;;2.57;;
65238;SDS011;51827;51.186;6.926;2024-01-15T01:06:31;3.93;;;2.30;;
65238;SDS011;51827;51.186;6.926;2024-01-15T01:07:31;3.27;;;2.43;;
65238;SDS011;51827;51.186;6.926;2024-01-15T01:08:31;3.63;;;2.33;;
65238;SDS011;51827;51.186;6.926;2024-01-15T01:09:31;3.70;;;2.40;;
65238;SDS011;51827;51.186;6.926;2024-01-15T01:10:32;3.20;;;2.27;;
65238;SDS011;51827;51.186;6.926;2024-01-15T01:11:32;3.43;;;2.20;;
65238;SDS011;51827;51.186;6.926;2024-01-15T01:12:32;3.50;;;2.40;;
65238;SDS011;51827;51.186;6.926;2024-01-15T01:13:32;3.87;;;2.37;;
65238;SDS011;51827;51.186;6.926;2024-01-15T01:14:33;3.38;;;2.40;;
65238;SDS011;51827;51.186;6.926;2024-01-15T01:15:33;3.73;;;2.63;;
65238;SDS011;51827;51.186;6.926;2024-01-15T01:16:33;3.50;;;2.70;;
65238;SDS011;51827;51.186;6.926;2024-01-15T01:17:34;5.93;;;2.30;;
65238;SDS011;51827;51.186;6.926;2024-01-15T01:18:34;3.53;;;2.40;;
65238;SDS011;51827;51.186;6.926;2024-01-15T01:19:35;3.50;;;2.33;;
65238;SDS011;51827;51.186;6.926;2024-01-15T01:20:35;3.93;;;2.63;;
65238;SDS011;51827;51.186;6.926;2024-01-15T01:21:35;3.10;;;2.23;;
65238;SDS011;51827;51.186;6.926;2024-01-15T01:22:35;3.63;;;2.57;;
65238;SDS011;51827;51.186;6.926;2024-01-15T01:23:36;3.47;;;2.22;;
65238;SDS011;51827;51.186;6.926;2024-01-15T01:24:36;3.67;;;2.30;;
65238;SDS011;51827;51.186;6.926;2024-01-15T01:25:37;3.07;;;2.20;;
65238;SDS011;51827;51.186;6.926;2024-01-15T01:26:37;3.77;;;2.50;;
65238;SDS011;51827;51.186;6.926;2024-01-15T01:27:37;3.47;;;2.43;;
65238;SDS011;51827;51.186;6.926;2024-01-15T01:28:37;3.03;;;2.10;;
65238;SDS011;51827;51.186;6.926;2024-01-15T01:29:38;2.87;;;2.20;;
65238;SDS011;51827;51.186;6.926;2024-01-15T01:30:38;3.87;;;2.63;;
65238;SDS011;51827;51.186;6.926;2024-01-15T01:31:44;4.13;;;2.40;;
65238;SDS011;51827;51.186;6.926;2024-01-15T01:32:45;3.38;;;2.40;;
65238;SDS011;51827;51.186;6.926;2024-01-15T01:33:45;3.33;;;2.30;;
65238;SDS011;51827;51.186;6.926;2024-01-15T01:34:45;3.60;;;2.47;;
65238;SDS011;51827;51.186;6.926;2024-01-15T01:35:46;3.47;;;2.37;;
65238;SDS011;51827;51.186;6.926;2024-01-15T01:36:46;4.90;;;2.73;;
65238;SDS011;51827;51.186;6.926;2024-01-15T01:37:46;3.60;;;2.40;;
65238;SDS011;51827;51.186;6.926;2024-01-15T01:38:46;3.80;;;2.60;;
65238;SDS011;51827;51.186;6.926;2024-01-15T01:39:47;3.77;;;2.60;;
65238;SDS011;51827;51.186;6.926;2024-01-15T01:40:47;3.57;;;2.57;;
65238;SDS011;51827;51.186;6.926;2024-01-15T01:41:47;3.43;;;2.63;;
65238;SDS011;51827;51.186;6.926;2024-01-15T01:42:48;3.87;;;2.77;;
65238;SDS011;51827;51.186;6.926;2024-01-15T01:43:48;3.85;;;2.70;;
65238;SDS011;51827;51.186;6.926;2024-01-15T01:44:49;4.43;;;2.60;;
65238;SDS011;51827;51.186;6.926;2024-01-15T01:45:49;3.93;;;2.80;;
65238;SDS011;51827;51.186;6.926;2024-01-15T01:46:49;3.90;;;2.67;;
65238;SDS011;51827;51.186;6.926;2024-01-15T01:47:50;3.40;;;2.10;;
65238;SDS011;51827;51.186;6.926;2024-01-15T01:48:50;3.20;;;2.53;;
65238;SDS011;51827;51.186;6.926;2024-01-15T01:49:50;4.00;;;2.70;;
65238;SDS011;51827;51.186;6.926;2024-01-15T01:50:52;3.63;;;2.50;;
65238;SDS011;51827;51.186;6.926;2024-01-15T01:51:59;3.90;;;2.60;;
65238;SDS011;51827;51.186;6.926;2024-01-15T01:53:01;3.53;;;2.55;;
65238;SDS011;51827;51.186;6.926;2024-01-15T01:54:02;3.55;;;2.40;;
65238;SDS011;51827;51.186;6.926;2024-01-15T01:55:03;3.80;;;2.50;;
65238;SDS011;51827;51.186;6.926;2024-01-15T01:56:04;4.38;;;2.20;;
65238;SDS011;51827;51.186;6.926;2024-01-15T01:57:05;3.58;;;2.50;;
65238;SDS011;51827;51.186;6.926;2024-01-15T01:58:06;3.33;;;2.28;;
65238;SDS011;51827;51.186;6.926;2024-01-15T01:59:07;3.13;;;2.30;;
65238;SDS011;51827;51.186;6.926;2024-01-15T02:00:09;3.60;;;2.53;;
65238;SDS011;51827;51.186;6.926;2024-01-15T02:01:12;4.90;;;2.33;;
65238;SDS011;51827;51.186;6.926;2024-01-15T02:02:12;3.70;;;2.55;;
65238;SDS011;51827;51.186;6.926;2024-01-15T02:03:13;3.22;;;2.40;;
65238;SDS011;51827;51.186;6.926;2024-01-15T02:04:13;3.95;;;2.55;;
65238;SDS011;51827;51.186;6.926;2024-01-15T02:05:17;3.97;;;2.47;;
65238;SDS011;51827;51.186;6.926;2024-01-15T02:06:18;3.72;;;2.40;;
65238;SDS011;51827;51.186;6.926;2024-01-15T02:07:19;3.83;;;2.53;;
65238;SDS011;51827;51.186;6.926;2024-01-15T02:08:19;3.73;;;2.37;;
65238;SDS011;51827;51.186;6.926;2024-01-15T02:09:20;3.45;;;2.40;;
65238;SDS011;51827;51.186;6.926;2024-01-15T02:10:20;3.25;;;2.40;;
65238;SDS011;51827;51.186;6.926;2024-01-15T02:11:20;3.13;;;2.33;;
65238;SDS011;51827;51.186;6.926;2024-01-15T02:12:21;3.13;;;2.30;;
65238;SDS011;51827;51.186;6.926;2024-01-15T02:13:22;3.35;;;2.35;;
65238;SDS011;51827;51.186;6.926;2024-01-15T02:14:22;3.43;;;2.20;;
65238;SDS011;51827;51.186;6.926;2024-01-15T02:15:22;3.90;;;2.40;;
65238;SDS011;51827;51.186;6.926;2024-01-15T02:16:23;3.70;;;2.60;;
65238;SDS011;51827;51.186;6.926;2024-01-15T02:17:23;3.60;;;2.47;;
65238;SDS011;51827;51.186;6.926;2024-01-15T02:18:23;3.33;;;2.53;;
65238;SDS011;51827;51.186;6.926;2024-01-15T02:19:24;3.20;;;2.20;;
65238;SDS011;51827;51.186;6.926;2024-01-15T02:20:24;3.78;;;2.53;;
65238;SDS011;51827;51.186;6.926;2024-01-15T02:21:25;3.90;;;2.70;;
65238;SDS011;51827;51.186;6.926;2024-01-15T02:22:25;3.40;;;2.60;;
65238;SDS011;51827;51.186;6.926;2024-01-15T02:23:26;3.50;;;2.50;;
65238;SDS011;51827;51.186;6.926;2024-01-15T02:24:26;4.20;;;2.40;;
65238;SDS011;51827;51.186;6.926;2024-01-15T02:25:26;3.50;;;2.50;;
65238;SDS011;51827;51.186;6.926;2024-01-15T02:26:26;4.20;;;2.67;;
65238;SDS011;51827;51.186;6.926;2024-01-15T02:27:27;4.47;;;2.70;;
65238;SDS011;51827;51.186;6.926;2024-01-15T02:28:27;3.47;;;2.30;;
65238;SDS011;51827;51.186;6.926;2024-01-15T02:29:27;4.05;;;2.67;;
65238;SDS011;51827;51.186;6.926;2024-01-15T02:30:27;3.37;;;2.20;;
65238;SDS011;51827;51.186;6.926;2024-01-15T02:31:29;3.60;;;2.50;;
65238;SDS011;51827;51.186;6.926;2024-01-15T02:32:29;3.53;;;2.20;;
65238;SDS011;51827;51.186;6.926;2024-01-15T02:33:29;3.50;;;2.30;;
65238;SDS011;51827;51.186;6.926;2024-01-15T02:34:31;4.03;;;2.77;;
65238;SDS011;51827;51.186;6.926;2024-01-15T02:35:32;4.35;;;2.55;;
65238;SDS011;51827;51.186;6.926;2024-01-15T02:36:33;3.45;;;2.47;;
65238;SDS011;51827;51.186;6.926;2024-01-15T02:37:33;3.60;;;2.47;;
65238;SDS011;51827;51.186;6.926;2024-01-15T02:38:33;4.17;;;2.67;;
65238;SDS011;51827;51.186;6.926;2024-01-15T02:39:33;3.90;;;2.20;;
65238;SDS011;51827;51.186;6.926;2024-01-15T02:40:34;4.77;;;2.77;;
65238;SDS011;51827;51.186;6.926;2024-01-15T02:41:35;4.28;;;2.60;;
65238;SDS011;51827;51.186;6.926;2024-01-15T02:42:35;3.73;;;2.53;;
65238;SDS011;51827;51.186;6.926;2024-01-15T02:43:35;4.03;;;2.70;;
65238;SDS011;51827;51.186;6.926;2024-01-15T02:44:35;4.53;;;2.73;;
65238;SDS011;51827;51.186;6.926;2024-01-15T02:45:36;3.07;;;2.30;;
65238;SDS011;51827;51.186;6.926;2024-01-15T02:46:36;2.88;;;2.30;;
65238;SDS011;51827;51.186;6.926;2024-01-15T02:47:36;4.30;;;2.83;;
65238;SDS011;51827;51.186;6.926;2024-01-15T02:48:37;2.87;;;2.30;;
65238;SDS011;51827;51.186;6.926;2024-01-15T02:49:37;4.20;;;2.70;;
65238;SDS011;51827;51.186;6.926;2024-01-15T02:50:37;4.60;;;2.80;;
65238;SDS011;51827;51.186;6.926;2024-01-15T02:51:38;3.50;;;2.33;;
65238;SDS011;51827;51.186;6.926;2024-01-15T02:52:38;3.50;;;2.43;;
65238;SDS011;51827;51.186;6.926;2024-01-15T02:53:38;3.23;;;2.27;;
65238;SDS011;51827;51.186;6.926;2024-01-15T02:54:38;3.78;;;2.70;;
65238;SDS011;51827;51.186;6.926;2024-01-15T02:55:39;3.10;;;2.33;;
65238;SDS011;51827;51.186;6.926;2024-01-15T02:56:39;4.17;;;2.67;;
65238;SDS011;51827;51.186;6.926;2024-01-15T02:57:39;3.77;;;2.60;;
65238;SDS011;51827;51.186;6.926;2024-01-15T02:58:39;3.80;;;2.60;;
65238;SDS011;51827;51.186;6.926;2024-01-15T02:59:40;3.43;;;2.40;;
65238;SDS011;51827;51.186;6.926;2024-01-15T03:00:40;3.57;;;2.50;;
65238;SDS011;51827;51.186;6.926;2024-01-15T03:01:40;4.03;;;2.70;;
65238;SDS011;51827;51.186;6.926;2024-01-15T03:02:41;3.40;;;2.50;;
65238;SDS011;51827;51.186;6.926;2024-01-15T03:03:43;3.17;;;2.30;;
65238;SDS011;51827;51.186;6.926;2024-01-15T03:04:44;3.43;;;2.20;;
65238;SDS011;51827;51.186;6.926;2024-01-15T03:05:44;3.63;;;2.30;;
65238;SDS011;51827;51.186;6.926;2024-01-15T03:06:44;4.20;;;2.80;;
65238;SDS011;51827;51.186;6.926;2024-01-15T03:07:45;3.27;;;2.33;;
65238;SDS011;51827;51.186;6.926;2024-01-15T03:08:45;3.93;;;2.47;;
65238;SDS011;51827;51.186;6.926;2024-01-15T03:09:45;4.67;;;2.50;;
65238;SDS011;51827;51.186;6.926;2024-01-15T03:10:45;3.77;;;2.67;;
65238;SDS011;51827;51.186;6.926;2024-01-15T03:11:46;4.20;;;2.57;;
65238;SDS011;51827;51.186;6.926;2024-01-15T03:12:46;4.40;;;2.83;;
65238;SDS011;51827;51.186;6.926;2024-01-15T03:13:46;4.20;;;2.50;;
65238;SDS011;51827;51.186;6.926;2024-01-15T03:14:46;3.23;;;2.23;;
65238;SDS011;51827;51.186;6.926;2024-01-15T03:15:47;3.37;;;2.40;;
65238;SDS011;51827;51.186;6.926;2024-01-15T03:16:47;3.90;;;2.33;;
65238;SDS011;51827;51.186;6.926;2024-01-15T03:17:47;4.13;;;2.60;;
65238;SDS011;51827;51.186;6.926;2024-01-15T03:18:47;3.53;;;2.50;;
65238;SDS011;51827;51.186;6.926;2024-01-15T03:19:48;3.90;;;2.60;;
65238;SDS011;51827;51.186;6.926;2024-01-15T03:20:48;4.00;;;2.70;;
65238;SDS011;51827;51.186;6.926;2024-01-15T03:21:48;3.10;;;2.30;;
65238;SDS011;51827;51.186;6.926;2024-01-15T03:22:48;3.43;;;2.40;;
65238;SDS011;51827;51.186;6.926;2024-01-15T03:23:49;2.97;;;2.30;;
65238;SDS011;51827;51.186;6.926;2024-01-15T03:24:49;3.40;;;2.27;;
65238;SDS011;51827;51.186;6.926;2024-01-15T03:25:49;3.57;;;2.40;;
65238;SDS011;51827;51.186;6.926;2024-01-15T03:26:49;3.53;;;2.43;;
65238;SDS011;51827;51.186;6.926;2024-01-15T03:27:50;3.87;;;2.30;;
65238;SDS011;51827;51.186;6.926;2024-01-15T03:28:50;3.87;;;2.60;;
65238;SDS011;51827;51.186;6.926;2024-01-15T03:29:50;3.90;;;2.57;;
65238;SDS011;51827;51.186;6.926;2024-01-15T03:30:50;3.43;;;2.53;;
65238;SDS011;51827;51.186;6.926;2024-01-15T03:31:51;3.30;;;2.30;;
65238;SDS011;51827;51.186;6.926;2024-01-15T03:32:51;3.13;;;2.27;;
65238;SDS011;51827;51.186;6.926;2024-01-15T03:33:51;3.67;;;2.50;;
65238;SDS011;51827;51.186;6.926;2024-01-15T03:34:51;2.70;;;1.93;;
65238;SDS011;51827;51.186;6.926;2024-01-15T03:35:51;3.80;;;2.50;;
65238;SDS011;51827;51.186;6.926;2024-01-15T03:36:52;3.13;;;2.30;;
65238;SDS011;51827;51.186;6.926;2024-01-15T03:37:52;3.27;;;2.30;;
65238;SDS011;51827;51.186;6.926;2024-01-15T03:38:52;4.27;;;2.63;;
65238;SDS011;51827;51.186;6.926;2024-01-15T03:39:52;3.43;;;2.30;;
65238;SDS011;51827;51.186;6.926;2024-01-15T03:40:53;3.27;;;2.13;;
65238;SDS011;51827;51.186;6.926;2024-01-15T03:41:53;3.43;;;2.33;;
65238;SDS011;51827;51.186;6.926;2024-01-15T03:42:53;3.33;;;2.17;;
65238;SDS011;51827;51.186;6.926;2024-01-15T03:43:53;3.30;;;2.23;;
65238;SDS011;51827;51.186;6.926;2024-01-15T03:44:54;3.53;;;2.47;;
65238;SDS011;51827;51.186;6.926;2024-01-15T03:45:54;3.50;;;2.47;;
65238;SDS011;51827;51.186;6.926;2024-01-15T03:46:54;3.60;;;2.33;;
65238;SDS011;51827;51.186;6.926;2024-01-15T03:47:54;3.17;;;2.40;;
65238;SDS011;51827;51.186;6.926;2024-01-15T03:48:55;3.93;;;2.40;;
65238;SDS011;51827;51.186;6.926;2024-01-15T03:49:55;2.90;;;2.10;;
65238;SDS011;51827;51.186;6.926;2024-01-15T03:50:55;3.97;;;2.40;;
65238;SDS011;51827;51.186;6.926;2024-01-15T03:51:55;4.43;;;2.40;;
65238;SDS011;51827;51.186;6.926;2024-01-15T03:52:56;3.43;;;2.40;;
65238;SDS011;51827;51.186;6.926;2024-01-15T03:53:56;3.67;;;2.47;;
65238;SDS011;51827;51.186;6.926;2024-01-15T03:54:56;3.60;;;2.37;;
65238;SDS011;51827;51.186;6.926;2024-01-15T03:55:56;3.43;;;2.43;;
65238;SDS011;51827;51.186;6.926;2024-01-15T03:56:57;3.10;;;2.30;;
65238;SDS011;51827;51.186;6.926;2024-01-15T03:57:57;4.73;;;2.30;;
65238;SDS011;51827;51.186;6.926;2024-01-15T03:58:57;3.47;;;2.30;;
65238;SDS011;51827;51.186;6.926;2024-01-15T03:59:57;3.33;;;2.33;;
65238;SDS011;51827;51.186;6.926;2024-01-15T04:00:58;3.23;;;2.37;;
65238;SDS011;51827;51.186;6.926;2024-01-15T04:01:58;3.43;;;2.20;;
65238;SDS011;51827;51.186;6.926;2024-01-15T04:02:58;3.23;;;2.40;;
65238;SDS011;51827;51.186;6.926;2024-01-15T04:03:58;4.20;;;2.60;;
65238;SDS011;51827;51.186;6.926;2024-01-15T04:04:59;3.53;;;2.20;;
65238;SDS011;51827;51.186;6.926;2024-01-15T04:05:59;3.00;;;2.20;;
65238;SDS011;51827;51.186;6.926;2024-01-15T04:06:59;3.80;;;2.30;;
65238;SDS011;51827;51.186;6.926;2024-01-15T04:07:59;3.43;;;2.30;;
65238;SDS011;51827;51.186;6.926;2024-01-15T04:09:00;3.47;;;2.43;;
65238;SDS011;51827;51.186;6.926;2024-01-15T04:10:00;3.00;;;2.40;;
65238;SDS011;51827;51.186;6.926;2024-01-15T04:11:00;2.77;;;2.00;;
65238;SDS011;51827;51.186;6.926;2024-01-15T04:12:00;3.33;;;2.30;;
65238;SDS011;51827;51.186;6.926;2024-01-15T04:13:01;3.40;;;2.47;;
65238;SDS011;51827;51.186;6.926;2024-01-15T04:14:01;3.00;;;2.10;;
65238;SDS011;51827;51.186;6.926;2024-01-15T04:15:01;3.53;;;2.23;;
65238;SDS011;51827;51.186;6.926;2024-01-15T04:16:01;4.20;;;2.60;;
65238;SDS011;51827;51.186;6.926;2024-01-15T04:17:02;3.47;;;2.43;;
65238;SDS011;51827;51.186;6.926;2024-01-15T04:18:02;3.28;;;2.20;;
65238;SDS011;51827;51.186;6.926;2024-01-15T04:19:03;3.00;;;2.20;;
65238;SDS011;51827;51.186;6.926;2024-01-15T04:20:03;3.43;;;2.27;;
65238;SDS011;51827;51.186;6.926;2024-01-15T04:21:04;3.30;;;2.42;;
65238;SDS011;51827;51.186;6.926;2024-01-15T04:23:05;4.68;;;2.30;;
65238;SDS011;51827;51.186;6.926;2024-01-15T04:24:06;3.17;;;2.27;;
65238;SDS011;51827;51.186;6.926;2024-01-15T04:25:06;3.03;;;2.20;;
65238;SDS011;51827;51.186;6.926;2024-01-15T04:26:06;3.28;;;2.10;;
65238;SDS011;51827;51.186;6.926;2024-01-15T04:27:07;3.83;;;2.43;;
65238;SDS011;51827;51.186;6.926;2024-01-15T04:28:07;3.17;;;2.20;;
65238;SDS011;51827;51.186;6.926;2024-01-15T04:29:07;3.22;;;2.10;;
65238;SDS011;51827;51.186;6.926;2024-01-15T04:30:08;2.77;;;2.10;;
65238;SDS011;51827;51.186;6.926;2024-01-15T04:31:08;3.42;;;2.25;;
65238;SDS011;51827;51.186;6.926;2024-01-15T04:32:09;3.03;;;2.20;;
65238;SDS011;51827;51.186;6.926;2024-01-15T04:33:09;2.87;;;2.10;;
65238;SDS011;51827;51.186;6.926;2024-01-15T04:34:09;4.20;;;2.30;;
65238;SDS011;51827;51.186;6.926;2024-01-15T04:35:09;3.10;;;2.20;;
65238;SDS011;51827;51.186;6.926;2024-01-15T04:36:10;2.77;;;2.10;;
65238;SDS011;51827;51.186;6.926;2024-01-15T04:37:10;3.97;;;2.30;;
65238;SDS011;51827;51.186;6.926;2024-01-15T04:38:10;3.10;;;2.10;;
65238;SDS011;51827;51.186;6.926;2024-01-15T04:39:10;3.40;;;2.30;;
65238;SDS011;51827;51.186;6.926;2024-01-15T04:40:11;3.13;;;2.10;;
65238;SDS011;51827;51.186;6.926;2024-01-15T04:41:12;3.17;;;2.42;;
65238;SDS011;51827;51.186;6.926;2024-01-15T04:42:12;3.00;;;2.10;;
65238;SDS011;51827;51.186;6.926;2024-01-15T04:43:13;4.83;;;2.50;;
65238;SDS011;51827;51.186;6.926;2024-01-15T04:44:13;3.23;;;2.20;;
65238;SDS011;51827;51.186;6.926;2024-01-15T04:45:13;3.63;;;2.40;;
65238;SDS011;51827;51.186;6.926;2024-01-15T04:46:13;4.07;;;2.20;;
65238;SDS011;51827;51.186;6.926;2024-01-15T04:47:14;3.97;;;2.13;;
65238;SDS011;51827;51.186;6.926;2024-01-15T04:48:14;3.07;;;2.27;;
65238;SDS011;51827;51.186;6.926;2024-01-15T04:49:14;4.97;;;2.37;;
65238;SDS011;51827;51.186;6.926;2024-01-15T04:50:15;3.07;;;2.10;;
65238;SDS011;51827;51.186;6.926;2024-01-15T04:51:15;3.65;;;2.40;;
65238;SDS011;51827;51.186;6.926;2024-01-15T04:52:15;3.13;;;2.27;;
65238;SDS011;51827;51.186;6.926;2024-01-15T04:53:16;4.10;;;2.50;;
65238;SDS011;51827;51.186;6.926;2024-01-15T04:54:16;4.70;;;2.13;;
65238;SDS011;51827;51.186;6.926;2024-01-15T04:55:16;5.53;;;2.10;;
65238;SDS011;51827;51.186;6.926;2024-01-15T04:56:16;2.97;;;2.10;;
65238;SDS011;51827;51.186;6.926;2024-01-15T04:57:17;5.47;;;2.40;;
65238;SDS011;51827;51.186;6.926;2024-01-15T04:58:17;4.07;;;2.20;;
65238;SDS011;51827;51.186;6.926;2024-01-15T04:59:17;3.63;;;2.03;;
65238;SDS011;51827;51.186;6.926;2024-01-15T05:00:17;3.00;;;2.10;;
65238;SDS011;51827;51.186;6.926;2024-01-15T05:01:18;2.90;;;1.90;;
65238;SDS011;51827;51.186;6.926;2024-01-15T05:02:18;4.43;;;2.17;;
65238;SDS011;51827;51.186;6.926;2024-01-15T05:03:18;3.13;;;2.30;;
65238;SDS011;51827;51.186;6.926;2024-01-15T05:04:18;3.10;;;2.17;;
65238;SDS011;51827;51.186;6.926;2024-01-15T05:05:19;2.80;;;2.07;;
65238;SDS011;51827;51.186;6.926;2024-01-15T05:06:19;5.87;;;2.47;;
65238;SDS011;51827;51.186;6.926;2024-01-15T05:07:19;3.10;;;2.20;;
65238;SDS011;51827;51.186;6.926;2024-01-15T05:08:19;5.70;;;2.00;;
65238;SDS011;51827;51.186;6.926;2024-01-15T05:09:20;3.37;;;2.00;;
65238;SDS011;51827;51.186;6.926;2024-01-15T05:10:20;3.10;;;2.17;;
65238;SDS011;51827;51.186;6.926;2024-01-15T05:11:20;3.03;;;2.10;;
65238;SDS011;51827;51.186;6.926;2024-01-15T05:12:20;2.60;;;1.90;;
65238;SDS011;51827;51.186;6.926;2024-01-15T05:13:21;8.77;;;3.53;;
65238;SDS011;51827;51.186;6.926;2024-01-15T05:14:21;9.53;;;4.40;;
65238;SDS011;51827;51.186;6.926;2024-01-15T05:15:21;6.80;;;3.67;;
65238;SDS011;51827;51.186;6.926;2024-01-15T05:16:21;11.00;;;3.93;;
65238;SDS011;51827;51.186;6.926;2024-01-15T05:17:22;8.50;;;4.50;;
65238;SDS011;51827;51.186;6.926;2024-01-15T05:18:22;12.10;;;4.30;;
65238;SDS011;51827;51.186;6.926;2024-01-15T05:19:22;10.37;;;4.53;;
65238;SDS011;51827;51.186;6.926;2024-01-15T05:20:22;14.50;;;4.30;;
65238;SDS011;51827;51.186;6.926;2024-01-15T05:21:23;8.47;;;3.70;;
65238;SDS011;51827;51.186;6.926;2024-01-15T05:22:23;11.57;;;3.83;;
65238;SDS011;51827;51.186;6.926;2024-01-15T05:23:23;8.80;;;3.57;;
65238;SDS011;51827;51.186;6.926;2024-01-15T05:24:23;11.07;;;3.80;;
65238;SDS011;51827;51.186;6.926;2024-01-15T05:25:23;10.13;;;3.50;;
65238;SDS011;51827;51.186;6.926;2024-01-15T05:26:24;6.33;;;3.47;;
65238;SDS011;51827;51.186;6.926;2024-01-15T05:27:24;8.53;;;3.50;;
65238;SDS011;51827;51.186;6.926;2024-01-15T05:28:24;6.67;;;3.33;;
65238;SDS011;51827;51.186;6.926;2024-01-15T05:29:24;9.10;;;3.43;;
65238;SDS011;51827;51.186;6.926;2024-01-15T05:30:25;8.40;;;3.60;;
65238;SDS011;51827;51.186;6.926;2024-01-15T05:31:25;8.77;;;3.60;;
65238;SDS011;51827;51.186;6.926;2024-01-15T05:32:25;7.30;;;3.40;;
65238;SDS011;51827;51.186;6.926;2024-01-15T05:33:25;6.43;;;3.40;;
65238;SDS011;51827;51.186;6.926;2024-01-15T05:34:26;6.07;;;2.87;;
65238;SDS011;51827;51.186;6.926;2024-01-15T05:35:26;10.23;;;3.20;;
65238;SDS011;51827;51.186;6.926;2024-01-15T05:36:26;8.00;;;3.50;;
65238;SDS011;51827;51.186;6.926;2024-01-15T05:37:26;6.43;;;3.07;;
65238;SDS011;51827;51.186;6.926;2024-01-15T05:38:27;7.33;;;2.70;;
65238;SDS011;51827;51.186;6.926;2024-01-15T05:39:27;9.57;;;2.97;;
65238;SDS011;51827;51.186;6.926;2024-01-15T05:40:27;5.93;;;2.87;;
65238;SDS011;51827;51.186;6.926;2024-01-15T05:41:28;5.50;;;3.10;;
65238;SDS011;51827;51.186;6.926;2024-01-15T05:42:28;4.47;;;2.73;;
65238;SDS011;51827;51.186;6.926;2024-01-15T05:43:28;8.13;;;3.13;;
65238;SDS011;51827;51.186;6.926;2024-01-15T05:44:28;9.07;;;2.73;;
65238;SDS011;51827;51.186;6.926;2024-01-15T05:45:29;6.83;;;2.90;;
65238;SDS011;51827;51.186;6.926;2024-01-15T05:47:30;11.03;;;3.00;;
65238;SDS011;51827;51.186;6.926;2024-01-15T05:48:30;6.27;;;2.77;;
65238;SDS011;51827;51.186;6.926;2024-01-15T05:49:31;5.13;;;2.63;;
65238;SDS011;51827;51.186;6.926;2024-01-15T05:50:31;5.40;;;2.60;;
65238;SDS011;51827;51.186;6.926;2024-01-15T05:51:31;6.07;;;2.33;;
65238;SDS011;51827;51.186;6.926;2024-01-15T05:52:32;7.30;;;2.60;;
65238;SDS011;51827;51.186;6.926;2024-01-15T05:53:32;5.50;;;2.80;;
65238;SDS011;51827;51.186;6.926;2024-01-15T05:54:32;6.87;;;2.43;;
65238;SDS011;51827;51.186;6.926;2024-01-15T05:55:32;11.63;;;2.80;;
65238;SDS011;51827;51.186;6.926;2024-01-15T05:56:33;8.77;;;3.30;;
65238;SDS011;51827;51.186;6.926;2024-01-15T05:57:33;3.83;;;2.40;;
65238;SDS011;51827;51.186;6.926;2024-01-15T05:58:33;4.50;;;2.53;;
65238;SDS011;51827;51.186;6.926;2024-01-15T05:59:34;4.20;;;2.40;;
65238;SDS011;51827;51.186;6.926;2024-01-15T06:00:34;4.83;;;2.57;;
65238;SDS011;51827;51.186;6.926;2024-01-15T06:01:35;6.88;;;2.13;;
65238;SDS011;51827;51.186;6.926;2024-01-15T06:02:37;5.03;;;2.73;;
65238;SDS011;51827;51.186;6.926;2024-01-15T06:03:37;5.53;;;2.80;;
65238;SDS011;51827;51.186;6.926;2024-01-15T06:04:38;5.53;;;2.10;;
65238;SDS011;51827;51.186;6.926;2024-01-15T06:05:38;5.10;;;2.20;;
65238;SDS011;51827;51.186;6.926;2024-01-15T06:06:38;5.10;;;2.33;;